createdAt,value
2018-03-07T00:00:53.728Z,54.10
2018-03-07T00:01:53.709Z,51.80
2018-03-07T00:02:53.689Z,52.40
2018-03-07T00:03:53.665Z,53.40
2018-03-07T00:04:53.646Z,53.70
2018-03-07T00:05:53.626Z,54.60
2018-03-07T00:06:53.607Z,54.50
2018-03-07T00:07:53.589Z,56.10
2018-03-07T00:08:53.561Z,53.70
2018-03-07T00:09:53.540Z,53.50
2018-03-07T00:10:53.524Z,55.40
2018-03-07T00:11:53.497Z,54.80
2018-03-07T00:12:53.478Z,55.10
2018-03-07T00:13:53.456Z,54.90
2018-03-07T00:14:53.455Z,55.80
2018-03-07T00:15:53.416Z,55.50
2018-03-07T00:16:53.392Z,53.90
2018-03-07T00:17:53.371Z,55.40
2018-03-07T00:18:53.350Z,55.60
2018-03-07T00:19:53.331Z,56.90
2018-03-07T00:20:53.310Z,54.20
2018-03-07T00:21:53.288Z,55.90
2018-03-07T00:22:53.274Z,54.40
2018-03-07T00:23:53.254Z,53.70
2018-03-07T00:24:53.227Z,54.00
2018-03-07T00:25:53.214Z,54.50
2018-03-07T00:26:53.186Z,55.80
2018-03-07T00:27:53.165Z,56.20
2018-03-07T00:28:53.144Z,57.40
2018-03-07T00:29:53.126Z,55.40
2018-03-07T00:30:53.102Z,56.90
2018-03-07T00:31:53.080Z,56.70
2018-03-07T00:32:53.067Z,55.40
2018-03-07T00:33:53.045Z,55.20
2018-03-07T00:34:53.026Z,54.30
2018-03-07T00:35:52.996Z,53.90
2018-03-07T00:36:52.977Z,55.60
2018-03-07T00:37:52.954Z,54.70
2018-03-07T00:38:52.937Z,55.50
2018-03-07T00:39:52.913Z,56.10
2018-03-07T00:40:52.899Z,55.30
2018-03-07T00:41:52.877Z,57.80
2018-03-07T00:42:52.854Z,58.00
2018-03-07T00:43:52.831Z,58.30
2018-03-07T00:44:52.810Z,57.30
2018-03-07T00:45:52.789Z,54.50
2018-03-07T00:46:52.769Z,58.80
2018-03-07T00:47:52.748Z,58.40
2018-03-07T00:48:52.731Z,58.40
2018-03-07T00:49:52.706Z,57.30
2018-03-07T00:50:52.687Z,54.90
2018-03-07T00:51:52.663Z,55.50
2018-03-07T00:52:52.650Z,57.30
2018-03-07T00:53:52.629Z,59.10
2018-03-07T00:54:52.612Z,58.30
2018-03-07T00:55:52.584Z,58.40
2018-03-07T00:56:52.561Z,57.60
2018-03-07T00:57:52.544Z,57.50
2018-03-07T00:58:52.526Z,59.40
2018-03-07T00:59:52.527Z,60.70
2018-03-07T01:00:52.477Z,60.90
2018-03-07T01:01:52.457Z,58.40
2018-03-07T01:02:52.435Z,58.90
2018-03-07T01:03:52.421Z,58.20
2018-03-07T01:04:52.399Z,58.60
2018-03-07T01:05:52.375Z,60.10
2018-03-07T01:06:52.356Z,58.70
2018-03-07T01:07:52.335Z,58.40
2018-03-07T01:08:52.312Z,59.40
2018-03-07T01:09:52.296Z,61.20
2018-03-07T01:10:52.273Z,59.50
2018-03-07T01:11:52.252Z,61.20
2018-03-07T01:12:52.236Z,62.30
2018-03-07T01:13:52.210Z,61.30
2018-03-07T01:14:52.193Z,60.00
2018-03-07T01:15:52.170Z,58.10
2018-03-07T01:16:52.154Z,60.30
2018-03-07T01:17:52.126Z,60.40
2018-03-07T01:18:52.112Z,57.90
2018-03-07T01:19:52.087Z,55.90
2018-03-07T01:20:52.066Z,56.20
2018-03-07T01:21:52.046Z,54.30
2018-03-07T01:22:52.027Z,56.90
2018-03-07T01:23:52.004Z,59.50
2018-03-07T01:24:51.991Z,54.90
2018-03-07T01:25:51.972Z,56.90
2018-03-07T01:26:51.947Z,57.30
2018-03-07T01:27:51.921Z,57.20
2018-03-07T01:28:51.900Z,56.40
2018-03-07T01:29:51.879Z,57.70
2018-03-07T01:30:51.861Z,59.90
2018-03-07T01:31:51.845Z,59.70
2018-03-07T01:32:51.820Z,56.80
2018-03-07T01:33:51.797Z,59.40
2018-03-07T01:34:51.781Z,60.00
2018-03-07T01:35:51.754Z,59.80
2018-03-07T01:36:51.736Z,60.40
2018-03-07T01:37:51.716Z,61.10
2018-03-07T01:38:51.699Z,60.80
2018-03-07T01:39:51.676Z,62.00
2018-03-07T01:40:51.656Z,61.10
2018-03-07T01:41:51.632Z,57.60
2018-03-07T01:42:51.614Z,59.40
2018-03-07T01:43:51.592Z,60.10
2018-03-07T01:44:51.580Z,58.20
2018-03-07T01:45:51.553Z,56.30
2018-03-07T01:46:51.541Z,57.50
2018-03-07T01:47:51.512Z,56.90
2018-03-07T01:48:51.494Z,60.80
2018-03-07T01:49:51.471Z,61.70
2018-03-07T01:50:51.450Z,61.90
2018-03-07T01:51:51.436Z,61.10
2018-03-07T01:52:51.412Z,59.30
2018-03-07T01:53:51.411Z,60.10
2018-03-07T01:54:51.367Z,61.70
2018-03-07T01:55:51.348Z,63.10
2018-03-07T01:56:51.326Z,66.50
2018-03-07T01:57:51.306Z,64.10
2018-03-07T01:58:51.292Z,62.80
2018-03-07T01:59:51.266Z,63.80
2018-03-07T02:00:51.249Z,64.20
2018-03-07T02:01:51.226Z,62.60
2018-03-07T02:02:51.204Z,65.30
2018-03-07T02:03:51.188Z,66.70
2018-03-07T02:04:51.166Z,65.50
2018-03-07T02:05:51.140Z,62.90
2018-03-07T02:06:51.122Z,56.00
2018-03-07T02:07:51.102Z,58.30
2018-03-07T02:08:51.079Z,53.90
2018-03-07T02:09:51.059Z,60.10
2018-03-07T02:10:51.046Z,65.10
2018-03-07T02:11:51.017Z,59.10
2018-03-07T02:12:50.997Z,57.80
2018-03-07T02:13:50.975Z,60.20
2018-03-07T02:14:50.956Z,61.90
2018-03-07T02:15:50.937Z,61.80
2018-03-07T02:16:50.916Z,66.00
2018-03-07T02:17:50.895Z,60.50
2018-03-07T02:18:50.875Z,63.10
2018-03-07T02:19:50.853Z,62.40
2018-03-07T02:20:50.832Z,58.70
2018-03-07T02:21:50.815Z,59.50
2018-03-07T02:22:50.793Z,57.20
2018-03-07T02:23:50.770Z,57.60
2018-03-07T02:24:50.755Z,58.00
2018-03-07T02:25:50.729Z,60.60
2018-03-07T02:26:50.711Z,60.70
2018-03-07T02:27:50.690Z,59.10
2018-03-07T02:28:50.672Z,60.50
2018-03-07T02:29:50.650Z,60.70
2018-03-07T02:30:50.627Z,59.80
2018-03-07T02:31:50.606Z,62.50
2018-03-07T02:32:50.586Z,61.50
2018-03-07T02:33:50.573Z,62.60
2018-03-07T02:34:50.548Z,61.00
2018-03-07T02:35:50.525Z,60.10
2018-03-07T02:36:50.505Z,60.10
2018-03-07T02:37:50.483Z,59.10
2018-03-07T02:38:50.462Z,61.20
2018-03-07T02:39:50.448Z,62.00
2018-03-07T02:40:50.421Z,62.80
2018-03-07T02:41:50.405Z,61.30
2018-03-07T02:42:50.382Z,67.30
2018-03-07T02:43:50.386Z,63.20
2018-03-07T02:44:50.348Z,59.30
2018-03-07T02:45:50.317Z,60.90
2018-03-07T02:46:50.299Z,63.00
2018-03-07T02:47:50.277Z,62.20
2018-03-07T02:48:50.264Z,62.90
2018-03-07T02:49:50.238Z,59.10
2018-03-07T02:50:50.216Z,68.20
2018-03-07T02:51:50.196Z,69.90
2018-03-07T02:52:50.186Z,73.60
2018-03-07T02:53:50.156Z,68.20
2018-03-07T02:54:50.139Z,56.90
2018-03-07T02:55:50.113Z,62.10
2018-03-07T02:56:50.092Z,65.00
2018-03-07T02:57:50.072Z,64.20
2018-03-07T02:58:50.050Z,64.90
2018-03-07T02:59:50.034Z,64.10
2018-03-07T03:00:50.011Z,66.30
2018-03-07T03:01:49.993Z,61.80
2018-03-07T03:02:49.967Z,58.30
2018-03-07T03:03:49.956Z,57.20
2018-03-07T03:04:49.927Z,58.90
2018-03-07T03:05:49.906Z,61.60
2018-03-07T03:06:49.889Z,60.00
2018-03-07T03:07:49.864Z,61.40
2018-03-07T03:08:49.843Z,61.60
2018-03-07T03:09:49.822Z,62.00
2018-03-07T03:10:49.803Z,60.00
2018-03-07T03:11:49.787Z,61.00
2018-03-07T03:12:49.760Z,63.20
2018-03-07T03:13:49.742Z,62.30
2018-03-07T03:14:49.718Z,60.00
2018-03-07T03:15:49.702Z,62.30
2018-03-07T03:16:49.677Z,59.60
2018-03-07T03:17:49.654Z,55.10
2018-03-07T03:18:49.635Z,57.70
2018-03-07T03:19:49.615Z,61.90
2018-03-07T03:20:49.596Z,62.30
2018-03-07T03:21:49.572Z,62.90
2018-03-07T03:22:49.559Z,65.20
2018-03-07T03:23:49.533Z,67.10
2018-03-07T03:24:49.512Z,68.60
2018-03-07T03:25:49.488Z,67.70
2018-03-07T03:26:49.470Z,71.40
2018-03-07T03:27:49.450Z,69.20
2018-03-07T03:28:49.429Z,65.90
2018-03-07T03:29:49.409Z,67.90
2018-03-07T03:30:49.382Z,65.90
2018-03-07T03:31:49.366Z,67.90
2018-03-07T03:32:49.342Z,63.30
2018-03-07T03:33:49.321Z,63.90
2018-03-07T03:34:49.310Z,59.20
2018-03-07T03:35:49.280Z,58.10
2018-03-07T03:36:49.259Z,59.90
2018-03-07T03:37:49.236Z,58.70
2018-03-07T03:38:49.218Z,59.80
2018-03-07T03:39:49.199Z,57.90
2018-03-07T03:40:49.175Z,58.00
2018-03-07T03:41:49.153Z,55.50
2018-03-07T03:42:49.136Z,55.80
2018-03-07T03:43:49.110Z,59.30
2018-03-07T03:44:49.092Z,57.40
2018-03-07T03:45:49.069Z,59.60
2018-03-07T03:46:49.052Z,60.10
2018-03-07T03:47:49.031Z,63.00
2018-03-07T03:48:49.008Z,62.60
2018-03-07T03:49:48.988Z,59.30
2018-03-07T03:50:48.966Z,57.30
2018-03-07T03:51:48.951Z,57.90
2018-03-07T03:52:48.920Z,54.90
2018-03-07T03:53:48.903Z,57.50
2018-03-07T03:54:48.886Z,59.60
2018-03-07T03:55:48.862Z,60.80
2018-03-07T03:56:48.839Z,60.00
2018-03-07T03:57:48.818Z,62.30
2018-03-07T03:58:48.796Z,58.50
2018-03-07T03:59:48.784Z,61.50
2018-03-07T04:00:48.755Z,60.80
2018-03-07T04:01:48.732Z,60.10
2018-03-07T04:02:48.712Z,60.00
2018-03-07T04:03:48.688Z,60.50
2018-03-07T04:04:48.675Z,58.50
2018-03-07T04:05:48.649Z,62.70
2018-03-07T04:06:48.628Z,62.30
2018-03-07T04:07:48.606Z,59.10
2018-03-07T04:08:48.594Z,60.10
2018-03-07T04:09:48.563Z,56.40
2018-03-07T04:10:48.546Z,58.10
2018-03-07T04:11:48.523Z,55.80
2018-03-07T04:12:48.498Z,56.40
2018-03-07T04:13:48.483Z,59.70
2018-03-07T04:14:48.458Z,59.70
2018-03-07T04:15:48.434Z,59.30
2018-03-07T04:16:48.413Z,54.00
2018-03-07T04:17:48.394Z,52.70
2018-03-07T04:18:48.376Z,53.70
2018-03-07T04:19:48.356Z,53.20
2018-03-07T04:20:48.330Z,52.50
2018-03-07T04:21:48.309Z,54.30
2018-03-07T04:22:48.290Z,50.80
2018-03-07T04:23:48.266Z,53.00
2018-03-07T04:24:48.243Z,55.20
2018-03-07T04:25:48.227Z,54.30
2018-03-07T04:26:48.200Z,54.30
2018-03-07T04:27:48.181Z,57.70
2018-03-07T04:28:48.162Z,55.80
2018-03-07T04:29:48.142Z,58.50
2018-03-07T04:30:48.119Z,61.70
2018-03-07T04:31:48.099Z,58.80
2018-03-07T04:32:48.076Z,61.10
2018-03-07T04:33:48.056Z,59.10
2018-03-07T04:34:48.037Z,60.80
2018-03-07T04:35:48.016Z,61.90
2018-03-07T04:36:47.996Z,63.00
2018-03-07T04:37:47.970Z,65.00
2018-03-07T04:38:47.950Z,63.60
2018-03-07T04:39:47.928Z,59.30
2018-03-07T04:40:47.907Z,57.20
2018-03-07T04:41:47.886Z,55.60
2018-03-07T04:42:47.866Z,59.00
2018-03-07T04:43:47.842Z,60.40
2018-03-07T04:44:47.823Z,61.70
2018-03-07T04:45:47.802Z,61.70
2018-03-07T04:46:47.780Z,58.70
2018-03-07T04:47:47.757Z,61.40
2018-03-07T04:48:47.736Z,59.30
2018-03-07T04:49:47.717Z,58.40
2018-03-07T04:50:47.696Z,58.20
2018-03-07T04:51:47.676Z,61.20
2018-03-07T04:52:47.650Z,57.40
2018-03-07T04:53:47.637Z,63.70
2018-03-07T04:54:47.618Z,65.50
2018-03-07T04:55:47.586Z,64.20
2018-03-07T04:56:47.565Z,63.80
2018-03-07T04:57:47.547Z,61.10
2018-03-07T04:58:47.527Z,63.90
2018-03-07T04:59:47.499Z,62.00
2018-03-07T05:00:47.481Z,63.80
2018-03-07T05:01:47.459Z,63.00
2018-03-07T05:02:47.504Z,60.10
2018-03-07T05:03:47.416Z,58.00
2018-03-07T05:04:47.397Z,57.70
2018-03-07T05:05:47.375Z,59.30
2018-03-07T05:06:47.356Z,60.00
2018-03-07T05:07:47.335Z,56.90
2018-03-07T05:08:47.311Z,56.50
2018-03-07T05:09:47.295Z,55.40
2018-03-07T05:10:47.265Z,56.10
2018-03-07T05:11:47.247Z,56.90
2018-03-07T05:12:47.223Z,63.80
2018-03-07T05:13:47.205Z,64.20
2018-03-07T05:14:47.186Z,62.20
2018-03-07T05:15:47.162Z,60.40
2018-03-07T05:16:47.143Z,64.70
2018-03-07T05:17:47.122Z,62.80
2018-03-07T05:18:47.132Z,63.20
2018-03-07T05:19:47.073Z,66.00
2018-03-07T05:20:47.057Z,64.30
2018-03-07T05:21:47.034Z,63.90
2018-03-07T05:22:47.011Z,64.60
2018-03-07T05:23:46.991Z,63.30
2018-03-07T05:24:46.978Z,64.90
2018-03-07T05:25:46.951Z,71.40
2018-03-07T05:26:46.926Z,64.60
2018-03-07T05:27:46.905Z,65.40
2018-03-07T05:28:46.884Z,67.30
2018-03-07T05:29:46.862Z,69.70
2018-03-07T05:30:46.852Z,70.20
2018-03-07T05:31:46.822Z,68.70
2018-03-07T05:32:46.801Z,75.00
2018-03-07T05:33:46.777Z,70.70
2018-03-07T05:34:46.756Z,72.10
2018-03-07T05:35:46.739Z,75.10
2018-03-07T05:36:46.716Z,78.10
2018-03-07T05:37:46.695Z,72.60
2018-03-07T05:38:46.670Z,73.90
2018-03-07T05:39:46.649Z,73.70
2018-03-07T05:40:46.628Z,72.00
2018-03-07T05:41:46.606Z,72.30
2018-03-07T05:42:46.595Z,70.10
2018-03-07T05:43:46.568Z,67.90
2018-03-07T05:44:46.545Z,67.00
2018-03-07T05:45:46.521Z,66.90
2018-03-07T05:46:46.499Z,67.80
2018-03-07T05:47:46.488Z,74.10
2018-03-07T05:48:46.456Z,73.70
2018-03-07T05:49:46.437Z,72.90
2018-03-07T05:50:46.419Z,74.70
2018-03-07T05:51:46.398Z,72.60
2018-03-07T05:52:46.373Z,75.70
2018-03-07T05:53:46.356Z,73.90
2018-03-07T05:54:46.333Z,73.80
2018-03-07T05:55:46.308Z,77.40
2018-03-07T05:56:46.288Z,79.20
2018-03-07T05:57:46.268Z,78.50
2018-03-07T05:58:46.244Z,78.60
2018-03-07T05:59:46.221Z,78.50
2018-03-07T06:00:46.203Z,76.40
2018-03-07T06:01:46.179Z,73.40
2018-03-07T06:02:46.158Z,71.50
2018-03-07T06:03:46.137Z,74.60
2018-03-07T06:04:46.119Z,73.90
2018-03-07T06:05:46.097Z,76.80
2018-03-07T06:06:46.073Z,77.10
2018-03-07T06:07:46.059Z,76.80
2018-03-07T06:08:46.031Z,75.50
2018-03-07T06:09:46.011Z,74.10
2018-03-07T06:10:45.987Z,78.80
2018-03-07T06:11:45.970Z,76.40
2018-03-07T06:12:45.947Z,73.50
2018-03-07T06:13:45.927Z,74.40
2018-03-07T06:14:45.904Z,71.90
2018-03-07T06:15:45.893Z,70.20
2018-03-07T06:16:45.863Z,68.50
2018-03-07T06:17:45.840Z,70.30
2018-03-07T06:18:45.820Z,69.50
2018-03-07T06:19:45.792Z,68.70
2018-03-07T06:20:45.773Z,73.90
2018-03-07T06:21:45.754Z,71.00
2018-03-07T06:22:45.731Z,70.40
2018-03-07T06:23:45.714Z,69.30
2018-03-07T06:24:45.690Z,73.20
2018-03-07T06:25:45.667Z,71.40
2018-03-07T06:26:45.646Z,68.40
2018-03-07T06:27:45.623Z,67.60
2018-03-07T06:28:45.603Z,69.20
2018-03-07T06:29:45.584Z,68.50
2018-03-07T06:30:45.563Z,71.50
2018-03-07T06:31:45.541Z,72.60
2018-03-07T06:32:45.516Z,71.20
2018-03-07T06:33:45.498Z,69.40
2018-03-07T06:34:45.477Z,68.00
2018-03-07T06:35:45.456Z,69.50
2018-03-07T06:36:45.436Z,71.30
2018-03-07T06:37:45.413Z,70.50
2018-03-07T06:38:45.393Z,66.80
2018-03-07T06:39:45.371Z,67.80
2018-03-07T06:40:45.399Z,64.90
2018-03-07T06:41:45.337Z,65.70
2018-03-07T06:42:45.311Z,62.10
2018-03-07T06:43:45.282Z,64.60
2018-03-07T06:44:45.263Z,71.70
2018-03-07T06:45:45.248Z,70.40
2018-03-07T06:46:45.225Z,66.80
2018-03-07T06:47:45.198Z,66.70
2018-03-07T06:48:45.174Z,66.80
2018-03-07T06:49:45.158Z,66.20
2018-03-07T06:50:45.139Z,69.80
2018-03-07T06:51:45.114Z,65.80
2018-03-07T06:52:45.131Z,67.60
2018-03-07T06:53:45.074Z,65.70
2018-03-07T06:54:45.051Z,63.00
2018-03-07T06:55:45.027Z,62.70
2018-03-07T06:56:45.007Z,63.50
2018-03-07T06:57:44.988Z,61.10
2018-03-07T06:58:44.990Z,61.70
2018-03-07T06:59:44.948Z,57.50
2018-03-07T07:00:44.923Z,56.60
2018-03-07T07:01:44.899Z,53.60
2018-03-07T07:02:44.883Z,57.10
2018-03-07T07:03:44.856Z,52.90
2018-03-07T07:04:44.833Z,56.40
2018-03-07T07:05:44.818Z,52.90
2018-03-07T07:06:44.796Z,57.70
2018-03-07T07:07:44.773Z,56.70
2018-03-07T07:08:44.751Z,55.40
2018-03-07T07:09:44.733Z,57.90
2018-03-07T07:10:44.706Z,58.40
2018-03-07T07:11:44.689Z,57.70
2018-03-07T07:12:44.671Z,61.90
2018-03-07T07:13:44.644Z,65.50
2018-03-07T07:14:44.622Z,70.10
2018-03-07T07:15:44.606Z,73.50
2018-03-07T07:16:44.583Z,69.20
2018-03-07T07:17:44.558Z,68.20
2018-03-07T07:18:44.538Z,68.00
2018-03-07T07:19:44.519Z,64.50
2018-03-07T07:20:44.493Z,64.10
2018-03-07T07:21:44.471Z,66.00
2018-03-07T07:22:44.460Z,68.50
2018-03-07T07:23:44.426Z,71.30
2018-03-07T07:24:44.409Z,72.10
2018-03-07T07:25:44.393Z,75.30
2018-03-07T07:26:44.367Z,72.50
2018-03-07T07:27:44.347Z,69.80
2018-03-07T07:28:44.328Z,67.60
2018-03-07T07:29:44.309Z,74.60
2018-03-07T07:30:44.285Z,82.40
2018-03-07T07:31:44.257Z,82.50
2018-03-07T07:32:44.241Z,84.00
2018-03-07T07:33:44.219Z,80.90
2018-03-07T07:34:44.194Z,77.10
2018-03-07T07:35:44.172Z,78.70
2018-03-07T07:36:44.155Z,84.10
2018-03-07T07:37:44.129Z,81.40
2018-03-07T07:38:44.113Z,84.20
2018-03-07T07:39:44.088Z,76.30
2018-03-07T07:40:44.073Z,73.00
2018-03-07T07:41:44.049Z,73.00
2018-03-07T07:42:44.028Z,76.20
2018-03-07T07:43:44.006Z,70.90
2018-03-07T07:44:43.984Z,77.30
2018-03-07T07:45:43.961Z,79.30
2018-03-07T07:46:43.942Z,73.60
2018-03-07T07:47:43.917Z,68.30
2018-03-07T07:48:43.903Z,71.50
2018-03-07T07:49:43.886Z,74.30
2018-03-07T07:50:43.920Z,76.40
2018-03-07T07:51:43.838Z,75.60
2018-03-07T07:52:43.812Z,71.70
2018-03-07T07:53:43.796Z,69.40
2018-03-07T07:54:43.770Z,73.90
2018-03-07T07:55:43.752Z,75.30
2018-03-07T07:56:43.735Z,71.60
2018-03-07T07:57:43.730Z,73.10
2018-03-07T07:58:43.689Z,69.90
2018-03-07T07:59:43.665Z,71.20
2018-03-07T08:00:43.706Z,70.60
2018-03-07T08:01:43.625Z,71.80
2018-03-07T08:02:43.603Z,67.80
2018-03-07T08:03:43.581Z,69.10
2018-03-07T08:04:43.564Z,70.30
2018-03-07T08:05:43.546Z,71.10
2018-03-07T08:06:43.523Z,71.20
2018-03-07T08:07:43.502Z,70.40
2018-03-07T08:08:43.482Z,68.90
2018-03-07T08:09:43.460Z,65.90
2018-03-07T08:10:43.437Z,60.80
2018-03-07T08:11:43.424Z,62.30
2018-03-07T08:12:43.400Z,59.50
2018-03-07T08:13:43.378Z,60.80
2018-03-07T08:14:43.355Z,59.30
2018-03-07T08:15:43.333Z,55.30
2018-03-07T08:16:43.341Z,55.20
2018-03-07T08:17:43.298Z,55.30
2018-03-07T08:18:43.275Z,55.10
2018-03-07T08:19:43.254Z,54.20
2018-03-07T08:20:43.231Z,52.20
2018-03-07T08:21:43.214Z,51.60
2018-03-07T08:22:43.190Z,50.80
2018-03-07T08:23:43.167Z,50.90
2018-03-07T08:24:43.149Z,47.60
2018-03-07T08:25:43.130Z,42.90
2018-03-07T08:26:43.112Z,43.70
2018-03-07T08:27:43.107Z,43.80
2018-03-07T08:28:43.068Z,41.50
2018-03-07T08:29:43.056Z,41.90
2018-03-07T08:30:43.024Z,44.30
2018-03-07T08:31:43.008Z,40.40
2018-03-07T08:32:42.994Z,40.50
2018-03-07T08:33:42.965Z,39.50
2018-03-07T08:34:42.945Z,37.70
2018-03-07T08:35:42.956Z,36.00
2018-03-07T08:36:42.901Z,34.10
2018-03-07T08:37:42.886Z,35.70
2018-03-07T08:38:42.873Z,35.80
2018-03-07T08:39:42.845Z,34.70
2018-03-07T08:40:42.823Z,32.20
2018-03-07T08:41:42.799Z,31.40
2018-03-07T08:42:42.779Z,32.40
2018-03-07T08:43:42.758Z,34.00
2018-03-07T08:44:42.736Z,32.90
2018-03-07T08:45:42.724Z,32.50
2018-03-07T08:46:42.697Z,32.60
2018-03-07T08:47:42.677Z,33.70
2018-03-07T08:48:42.658Z,33.10
2018-03-07T08:49:42.642Z,33.20
2018-03-07T08:50:42.619Z,33.30
2018-03-07T08:51:42.600Z,32.90
2018-03-07T08:52:42.577Z,31.80
2018-03-07T08:53:42.561Z,33.00
2018-03-07T08:54:42.534Z,33.30
2018-03-07T08:55:42.513Z,32.70
2018-03-07T08:56:42.495Z,33.10
2018-03-07T08:57:42.477Z,31.70
2018-03-07T08:58:42.459Z,30.20
2018-03-07T08:59:42.440Z,31.50
2018-03-07T09:00:42.415Z,29.90
2018-03-07T09:01:42.391Z,31.30
2018-03-07T09:02:42.373Z,29.10
2018-03-07T09:03:42.352Z,31.20
2018-03-07T09:04:42.330Z,32.20
2018-03-07T09:05:42.308Z,31.20
2018-03-07T09:06:42.297Z,32.80
2018-03-07T09:07:42.268Z,33.00
2018-03-07T09:08:42.250Z,31.10
2018-03-07T09:09:42.228Z,32.10
2018-03-07T09:10:42.207Z,31.00
2018-03-07T09:11:42.186Z,30.10
2018-03-07T09:12:42.166Z,32.00
2018-03-07T09:13:42.147Z,29.50
2018-03-07T09:14:42.125Z,31.00
2018-03-07T09:15:42.107Z,33.50
2018-03-07T09:16:42.085Z,31.40
2018-03-07T09:17:42.069Z,32.90
2018-03-07T09:18:42.052Z,32.50
2018-03-07T09:19:42.023Z,31.30
2018-03-07T09:20:42.024Z,31.30
2018-03-07T09:21:41.985Z,31.30
2018-03-07T09:22:41.962Z,31.50
2018-03-07T09:23:41.946Z,30.90
2018-03-07T09:24:41.924Z,28.80
2018-03-07T09:25:41.908Z,27.70
2018-03-07T09:26:41.894Z,28.80
2018-03-07T09:27:41.860Z,28.10
2018-03-07T09:28:41.841Z,25.60
2018-03-07T09:29:41.824Z,22.00
2018-03-07T09:30:41.810Z,20.80
2018-03-07T09:31:41.780Z,22.10
2018-03-07T09:32:41.761Z,22.40
2018-03-07T09:33:41.745Z,22.80
2018-03-07T09:34:41.720Z,22.70
2018-03-07T09:35:41.706Z,22.20
2018-03-07T09:36:41.681Z,20.30
2018-03-07T09:37:41.666Z,19.70
2018-03-07T09:38:41.640Z,24.30
2018-03-07T09:39:41.621Z,21.10
2018-03-07T09:40:41.601Z,24.70
2018-03-07T09:41:41.582Z,26.10
2018-03-07T09:42:41.578Z,26.70
2018-03-07T09:43:41.538Z,26.80
2018-03-07T09:44:41.519Z,27.10
2018-03-07T09:45:41.498Z,27.60
2018-03-07T09:46:41.476Z,25.60
2018-03-07T09:47:41.459Z,22.50
2018-03-07T09:48:41.437Z,21.50
2018-03-07T09:49:41.417Z,22.30
2018-03-07T09:50:41.395Z,20.80
2018-03-07T09:51:41.379Z,20.30
2018-03-07T09:52:41.356Z,17.20
2018-03-07T09:53:41.352Z,18.80
2018-03-07T09:54:41.318Z,19.20
2018-03-07T09:55:41.294Z,15.10
2018-03-07T09:56:41.278Z,18.40
2018-03-07T09:57:41.259Z,20.20
2018-03-07T09:58:41.237Z,15.20
2018-03-07T09:59:41.221Z,14.00
2018-03-07T10:00:41.198Z,14.90
2018-03-07T10:01:41.185Z,18.80
2018-03-07T10:02:41.158Z,23.20
2018-03-07T10:03:41.138Z,25.50
2018-03-07T10:04:41.117Z,26.00
2018-03-07T10:05:41.097Z,25.80
2018-03-07T10:06:41.080Z,28.40
2018-03-07T10:07:41.058Z,25.00
2018-03-07T10:08:41.042Z,26.20
2018-03-07T10:09:41.018Z,26.70
2018-03-07T10:10:41.003Z,26.70
2018-03-07T10:11:40.978Z,26.60
2018-03-07T10:12:40.961Z,27.30
2018-03-07T10:13:40.938Z,26.00
2018-03-07T10:14:40.923Z,25.80
2018-03-07T10:15:40.898Z,25.40
2018-03-07T10:16:40.897Z,25.80
2018-03-07T10:17:40.862Z,23.50
2018-03-07T10:18:40.842Z,24.60
2018-03-07T10:19:40.825Z,22.70
2018-03-07T10:20:40.821Z,23.00
2018-03-07T10:21:40.787Z,22.80
2018-03-07T10:22:40.763Z,24.60
2018-03-07T10:23:40.752Z,21.90
2018-03-07T10:24:40.725Z,22.60
2018-03-07T10:25:40.711Z,23.00
2018-03-07T10:26:40.704Z,23.70
2018-03-07T10:27:40.670Z,23.30
2018-03-07T10:28:40.655Z,22.10
2018-03-07T10:29:40.629Z,23.10
2018-03-07T10:30:40.618Z,22.60
2018-03-07T10:31:40.591Z,22.60
2018-03-07T10:32:40.568Z,22.60
2018-03-07T10:33:40.550Z,21.80
2018-03-07T10:34:40.546Z,21.70
2018-03-07T10:35:40.517Z,21.40
2018-03-07T10:36:40.498Z,22.50
2018-03-07T10:37:40.477Z,21.70
2018-03-07T10:38:40.464Z,20.80
2018-03-07T10:39:40.441Z,18.30
2018-03-07T10:40:40.420Z,17.90
2018-03-07T10:41:40.396Z,19.00
2018-03-07T10:42:40.378Z,18.40
2018-03-07T10:43:40.358Z,17.90
2018-03-07T10:44:40.338Z,19.00
2018-03-07T10:45:40.323Z,18.90
2018-03-07T10:46:40.310Z,17.90
2018-03-07T10:47:40.289Z,18.30
2018-03-07T10:48:40.270Z,18.40
2018-03-07T10:49:40.249Z,18.30
2018-03-07T10:50:40.228Z,18.10
2018-03-07T10:51:40.211Z,17.80
2018-03-07T10:52:40.192Z,18.50
2018-03-07T10:53:40.174Z,17.90
2018-03-07T10:54:40.157Z,18.50
2018-03-07T10:55:40.130Z,18.80
2018-03-07T10:56:40.125Z,18.00
2018-03-07T10:57:40.102Z,18.70
2018-03-07T10:58:40.078Z,18.30
2018-03-07T10:59:40.057Z,17.40
2018-03-07T11:00:40.039Z,18.00
2018-03-07T11:01:40.020Z,16.90
2018-03-07T11:02:40.005Z,17.00
2018-03-07T11:03:39.983Z,17.30
2018-03-07T11:04:39.965Z,17.80
2018-03-07T11:05:39.947Z,17.40
2018-03-07T11:06:39.927Z,17.30
2018-03-07T11:07:39.911Z,17.20
2018-03-07T11:08:39.898Z,17.20
2018-03-07T11:09:39.868Z,17.60
2018-03-07T11:10:39.858Z,18.00
2018-03-07T11:11:39.837Z,17.70
2018-03-07T11:12:39.816Z,18.20
2018-03-07T11:13:39.793Z,17.90
2018-03-07T11:14:39.799Z,18.10
2018-03-07T11:15:39.760Z,18.20
2018-03-07T11:16:39.739Z,18.40
2018-03-07T11:17:39.720Z,18.40
2018-03-07T11:18:39.707Z,18.30
2018-03-07T11:19:39.687Z,19.00
2018-03-07T11:20:39.721Z,18.50
2018-03-07T11:21:39.649Z,19.10
2018-03-07T11:22:39.627Z,19.40
2018-03-07T11:23:39.609Z,18.00
2018-03-07T11:24:39.592Z,19.50
2018-03-07T11:25:39.577Z,18.50
2018-03-07T11:26:39.556Z,19.90
2018-03-07T11:27:39.544Z,19.20
2018-03-07T11:28:39.514Z,19.30
2018-03-07T11:29:39.499Z,18.20
2018-03-07T11:30:39.492Z,18.40
2018-03-07T11:31:39.468Z,17.80
2018-03-07T11:32:39.442Z,17.70
2018-03-07T11:33:39.427Z,17.70
2018-03-07T11:34:39.407Z,16.70
2018-03-07T11:35:39.387Z,18.10
2018-03-07T11:36:39.368Z,18.00
2018-03-07T11:37:39.349Z,17.90
2018-03-07T11:38:39.332Z,17.50
2018-03-07T11:39:39.317Z,18.50
2018-03-07T11:40:39.298Z,18.70
2018-03-07T11:41:39.279Z,17.30
2018-03-07T11:42:39.259Z,16.70
2018-03-07T11:43:39.236Z,16.90
2018-03-07T11:44:39.229Z,17.10
2018-03-07T11:45:39.205Z,16.50
2018-03-07T11:46:39.189Z,16.60
2018-03-07T11:47:39.173Z,17.30
2018-03-07T11:48:39.149Z,16.30
2018-03-07T11:49:39.131Z,16.70
2018-03-07T11:50:39.113Z,16.60
2018-03-07T11:51:39.096Z,16.70
2018-03-07T11:52:39.076Z,17.90
2018-03-07T11:53:39.056Z,16.40
2018-03-07T11:54:39.039Z,17.50
2018-03-07T11:55:39.018Z,16.10
2018-03-07T11:56:39.000Z,17.30
2018-03-07T11:57:38.981Z,17.20
2018-03-07T11:58:38.967Z,17.20
2018-03-07T11:59:38.954Z,19.10
2018-03-07T12:00:38.929Z,20.60
2018-03-07T12:01:38.911Z,19.90
2018-03-07T12:02:38.893Z,21.80
2018-03-07T12:03:38.876Z,22.60
2018-03-07T12:04:38.856Z,20.60
2018-03-07T12:05:38.838Z,22.00
2018-03-07T12:06:38.819Z,21.90
2018-03-07T12:07:38.804Z,21.80
2018-03-07T12:08:38.796Z,22.40
2018-03-07T12:09:38.765Z,23.50
2018-03-07T12:10:38.748Z,23.00
2018-03-07T12:11:38.731Z,22.60
2018-03-07T12:12:38.715Z,22.60
2018-03-07T12:13:38.694Z,24.30
2018-03-07T12:14:38.674Z,25.40
2018-03-07T12:15:38.656Z,27.30
2018-03-07T12:16:38.645Z,27.30
2018-03-07T12:17:38.619Z,27.30
2018-03-07T12:18:38.603Z,28.30
2018-03-07T12:19:38.585Z,28.20
2018-03-07T12:20:38.565Z,28.00
2018-03-07T12:21:38.556Z,27.90
2018-03-07T12:22:38.536Z,27.10
2018-03-07T12:23:38.512Z,27.60
2018-03-07T12:24:38.488Z,28.00
2018-03-07T12:25:38.471Z,30.40
2018-03-07T12:26:38.459Z,30.60
2018-03-07T12:27:38.432Z,28.60
2018-03-07T12:28:38.417Z,28.70
2018-03-07T12:29:38.405Z,29.80
2018-03-07T12:30:38.377Z,27.20
2018-03-07T12:31:38.361Z,26.40
2018-03-07T12:32:38.347Z,25.60
2018-03-07T12:33:38.321Z,26.30
2018-03-07T12:34:38.304Z,26.20
2018-03-07T12:35:38.288Z,25.20
2018-03-07T12:36:38.276Z,25.00
2018-03-07T12:37:38.248Z,26.20
2018-03-07T12:38:38.231Z,26.20
2018-03-07T12:39:38.214Z,26.80
2018-03-07T12:40:38.196Z,24.10
2018-03-07T12:41:38.173Z,25.90
2018-03-07T12:42:38.157Z,25.70
2018-03-07T12:43:38.136Z,25.80
2018-03-07T12:44:38.124Z,23.60
2018-03-07T12:45:38.105Z,25.10
2018-03-07T12:46:38.081Z,23.90
2018-03-07T12:47:38.117Z,23.00
2018-03-07T12:48:38.044Z,24.50
2018-03-07T12:49:38.027Z,25.60
2018-03-07T12:50:38.017Z,25.10
2018-03-07T12:51:37.993Z,26.20
2018-03-07T12:52:37.973Z,28.20